sensor_id;sensor_type;location;lat;lon;timestamp;P1;durP1;ratioP1;P2;durP2;ratioP2
35330;SDS011;21441;52.190;20.910;2024-03-02T00:02:14;50.60;;;30.60;;
35330;SDS011;21441;52.190;20.910;2024-03-02T00:04:42;48.78;;;30.50;;
35330;SDS011;21441;52.190;20.910;2024-03-02T00:07:12;51.42;;;30.60;;
35330;SDS011;21441;52.190;20.910;2024-03-02T00:09:40;52.28;;;28.40;;
35330;SDS011;21441;52.190;20.910;2024-03-02T00:12:10;51.63;;;30.33;;
35330;SDS011;21441;52.190;20.910;2024-03-02T00:14:37;50.33;;;30.27;;
35330;SDS011;21441;52.190;20.910;2024-03-02T00:17:04;51.60;;;29.30;;
35330;SDS011;21441;52.190;20.910;2024-03-02T00:19:31;51.03;;;30.30;;
35330;SDS011;21441;52.190;20.910;2024-03-02T00:22:00;48.45;;;28.98;;
35330;SDS011;21441;52.190;20.910;2024-03-02T00:24:29;46.88;;;28.15;;
35330;SDS011;21441;52.190;20.910;2024-03-02T00:26:58;52.88;;;30.33;;
35330;SDS011;21441;52.190;20.910;2024-03-02T00:29:24;50.80;;;30.13;;
35330;SDS011;21441;52.190;20.910;2024-03-02T00:31:51;53.38;;;28.63;;
35330;SDS011;21441;52.190;20.910;2024-03-02T00:34:18;46.47;;;27.63;;
35330;SDS011;21441;52.190;20.910;2024-03-02T00:36:45;48.47;;;30.83;;
35330;SDS011;21441;52.190;20.910;2024-03-02T00:39:15;48.92;;;30.38;;
35330;SDS011;21441;52.190;20.910;2024-03-02T00:41:44;50.95;;;30.90;;
35330;SDS011;21441;52.190;20.910;2024-03-02T00:44:11;50.13;;;28.75;;
35330;SDS011;21441;52.190;20.910;2024-03-02T00:46:39;52.42;;;31.17;;
35330;SDS011;21441;52.190;20.910;2024-03-02T00:49:11;52.97;;;30.33;;
35330;SDS011;21441;52.190;20.910;2024-03-02T00:51:38;48.22;;;28.17;;
35330;SDS011;21441;52.190;20.910;2024-03-02T00:54:07;51.45;;;28.85;;
35330;SDS011;21441;52.190;20.910;2024-03-02T00:56:34;47.80;;;28.65;;
35330;SDS011;21441;52.190;20.910;2024-03-02T00:59:03;53.83;;;30.90;;
35330;SDS011;21441;52.190;20.910;2024-03-02T01:01:29;48.97;;;29.35;;
35330;SDS011;21441;52.190;20.910;2024-03-02T01:03:57;47.00;;;29.55;;
35330;SDS011;21441;52.190;20.910;2024-03-02T01:06:24;50.60;;;28.17;;
35330;SDS011;21441;52.190;20.910;2024-03-02T01:08:50;51.17;;;30.75;;
35330;SDS011;21441;52.190;20.910;2024-03-02T01:11:18;51.25;;;31.02;;
35330;SDS011;21441;52.190;20.910;2024-03-02T01:13:44;48.55;;;27.73;;
35330;SDS011;21441;52.190;20.910;2024-03-02T01:16:13;49.75;;;28.83;;
35330;SDS011;21441;52.190;20.910;2024-03-02T01:18:41;48.40;;;28.17;;
35330;SDS011;21441;52.190;20.910;2024-03-02T01:21:07;51.65;;;29.65;;
35330;SDS011;21441;52.190;20.910;2024-03-02T01:23:34;47.60;;;29.38;;
35330;SDS011;21441;52.190;20.910;2024-03-02T01:26:01;52.22;;;29.73;;
35330;SDS011;21441;52.190;20.910;2024-03-02T01:28:27;51.83;;;30.25;;
35330;SDS011;21441;52.190;20.910;2024-03-02T01:30:54;50.33;;;29.95;;
35330;SDS011;21441;52.190;20.910;2024-03-02T01:33:22;55.97;;;30.95;;
35330;SDS011;21441;52.190;20.910;2024-03-02T01:35:49;52.08;;;30.88;;
35330;SDS011;21441;52.190;20.910;2024-03-02T01:38:16;51.70;;;29.77;;
35330;SDS011;21441;52.190;20.910;2024-03-02T01:40:43;56.15;;;31.25;;
35330;SDS011;21441;52.190;20.910;2024-03-02T01:43:10;53.00;;;30.00;;
35330;SDS011;21441;52.190;20.910;2024-03-02T01:45:37;49.20;;;30.30;;
35330;SDS011;21441;52.190;20.910;2024-03-02T01:48:04;57.25;;;29.95;;
35330;SDS011;21441;52.190;20.910;2024-03-02T01:50:33;47.13;;;27.73;;
35330;SDS011;21441;52.190;20.910;2024-03-02T01:53:00;51.70;;;30.40;;
35330;SDS011;21441;52.190;20.910;2024-03-02T01:55:27;51.80;;;29.13;;
35330;SDS011;21441;52.190;20.910;2024-03-02T01:57:54;51.20;;;30.58;;
35330;SDS011;21441;52.190;20.910;2024-03-02T02:00:21;51.17;;;29.67;;
35330;SDS011;21441;52.190;20.910;2024-03-02T02:02:50;49.80;;;28.08;;
35330;SDS011;21441;52.190;20.910;2024-03-02T02:05:17;55.92;;;27.85;;
35330;SDS011;21441;52.190;20.910;2024-03-02T02:07:45;46.40;;;27.67;;
35330;SDS011;21441;52.190;20.910;2024-03-02T02:10:12;51.20;;;29.77;;
35330;SDS011;21441;52.190;20.910;2024-03-02T02:12:39;45.05;;;27.58;;
35330;SDS011;21441;52.190;20.910;2024-03-02T02:15:21;52.15;;;29.95;;
35330;SDS011;21441;52.190;20.910;2024-03-02T02:17:47;53.83;;;30.92;;
35330;SDS011;21441;52.190;20.910;2024-03-02T02:20:14;53.80;;;28.70;;
35330;SDS011;21441;52.190;20.910;2024-03-02T02:22:42;49.88;;;29.77;;
35330;SDS011;21441;52.190;20.910;2024-03-02T02:25:19;52.40;;;30.23;;
35330;SDS011;21441;52.190;20.910;2024-03-02T02:27:46;48.88;;;30.30;;
35330;SDS011;21441;52.190;20.910;2024-03-02T02:30:13;53.67;;;32.00;;
35330;SDS011;21441;52.190;20.910;2024-03-02T02:32:39;52.28;;;30.52;;
35330;SDS011;21441;52.190;20.910;2024-03-02T02:35:06;53.03;;;30.45;;
35330;SDS011;21441;52.190;20.910;2024-03-02T02:37:34;50.33;;;28.25;;
35330;SDS011;21441;52.190;20.910;2024-03-02T02:40:02;51.53;;;30.77;;
35330;SDS011;21441;52.190;20.910;2024-03-02T02:42:30;46.42;;;30.55;;
35330;SDS011;21441;52.190;20.910;2024-03-02T02:44:57;44.22;;;27.60;;
35330;SDS011;21441;52.190;20.910;2024-03-02T02:47:23;50.90;;;30.38;;
35330;SDS011;21441;52.190;20.910;2024-03-02T02:49:50;49.70;;;27.75;;
35330;SDS011;21441;52.190;20.910;2024-03-02T02:52:17;54.15;;;31.40;;
35330;SDS011;21441;52.190;20.910;2024-03-02T02:54:44;51.85;;;30.00;;
35330;SDS011;21441;52.190;20.910;2024-03-02T02:57:12;52.75;;;29.27;;
35330;SDS011;21441;52.190;20.910;2024-03-02T02:59:39;50.28;;;28.85;;
35330;SDS011;21441;52.190;20.910;2024-03-02T03:02:05;53.15;;;31.48;;
35330;SDS011;21441;52.190;20.910;2024-03-02T03:04:32;58.35;;;32.75;;
35330;SDS011;21441;52.190;20.910;2024-03-02T03:06:58;49.47;;;29.63;;
35330;SDS011;21441;52.190;20.910;2024-03-02T03:09:25;51.65;;;29.40;;
35330;SDS011;21441;52.190;20.910;2024-03-02T03:11:52;56.75;;;31.15;;
35330;SDS011;21441;52.190;20.910;2024-03-02T03:14:20;50.90;;;30.55;;
35330;SDS011;21441;52.190;20.910;2024-03-02T03:16:47;55.55;;;31.67;;
35330;SDS011;21441;52.190;20.910;2024-03-02T03:19:14;46.78;;;27.67;;
35330;SDS011;21441;52.190;20.910;2024-03-02T03:21:40;48.47;;;29.00;;
35330;SDS011;21441;52.190;20.910;2024-03-02T03:24:07;53.03;;;29.48;;
35330;SDS011;21441;52.190;20.910;2024-03-02T03:26:35;48.50;;;27.90;;
35330;SDS011;21441;52.190;20.910;2024-03-02T03:29:02;44.92;;;27.98;;
35330;SDS011;21441;52.190;20.910;2024-03-02T03:31:30;47.00;;;28.95;;
35330;SDS011;21441;52.190;20.910;2024-03-02T03:33:57;49.13;;;28.42;;
35330;SDS011;21441;52.190;20.910;2024-03-02T03:36:23;44.33;;;25.88;;
35330;SDS011;21441;52.190;20.910;2024-03-02T03:38:50;48.85;;;28.33;;
35330;SDS011;21441;52.190;20.910;2024-03-02T03:41:17;47.85;;;27.52;;
35330;SDS011;21441;52.190;20.910;2024-03-02T03:43:44;45.13;;;26.63;;
35330;SDS011;21441;52.190;20.910;2024-03-02T03:46:10;55.38;;;30.48;;
35330;SDS011;21441;52.190;20.910;2024-03-02T03:48:39;47.45;;;27.98;;
35330;SDS011;21441;52.190;20.910;2024-03-02T03:51:05;49.22;;;27.95;;
35330;SDS011;21441;52.190;20.910;2024-03-02T03:53:32;46.75;;;30.00;;
35330;SDS011;21441;52.190;20.910;2024-03-02T03:55:59;46.03;;;29.63;;
35330;SDS011;21441;52.190;20.910;2024-03-02T03:58:26;51.47;;;27.73;;
35330;SDS011;21441;52.190;20.910;2024-03-02T04:00:52;47.50;;;28.23;;
35330;SDS011;21441;52.190;20.910;2024-03-02T04:03:19;48.83;;;28.70;;
35330;SDS011;21441;52.190;20.910;2024-03-02T04:05:47;47.58;;;28.52;;
35330;SDS011;21441;52.190;20.910;2024-03-02T04:08:14;49.83;;;28.75;;
35330;SDS011;21441;52.190;20.910;2024-03-02T04:10:41;44.65;;;26.60;;
35330;SDS011;21441;52.190;20.910;2024-03-02T04:13:08;44.00;;;28.23;;
35330;SDS011;21441;52.190;20.910;2024-03-02T04:15:35;57.55;;;31.77;;
35330;SDS011;21441;52.190;20.910;2024-03-02T04:18:02;50.45;;;28.15;;
35330;SDS011;21441;52.190;20.910;2024-03-02T04:20:28;48.35;;;28.55;;
35330;SDS011;21441;52.190;20.910;2024-03-02T04:22:57;50.42;;;30.20;;
35330;SDS011;21441;52.190;20.910;2024-03-02T04:25:24;53.00;;;29.27;;
35330;SDS011;21441;52.190;20.910;2024-03-02T04:27:51;44.33;;;27.95;;
35330;SDS011;21441;52.190;20.910;2024-03-02T04:30:17;46.17;;;26.98;;
35330;SDS011;21441;52.190;20.910;2024-03-02T04:32:44;50.80;;;27.65;;
35330;SDS011;21441;52.190;20.910;2024-03-02T04:35:12;53.60;;;30.35;;
35330;SDS011;21441;52.190;20.910;2024-03-02T04:37:39;53.83;;;29.75;;
35330;SDS011;21441;52.190;20.910;2024-03-02T04:40:08;54.47;;;28.02;;
35330;SDS011;21441;52.190;20.910;2024-03-02T04:42:34;58.05;;;27.88;;
35330;SDS011;21441;52.190;20.910;2024-03-02T04:45:02;48.47;;;29.38;;
35330;SDS011;21441;52.190;20.910;2024-03-02T04:47:28;47.78;;;28.05;;
35330;SDS011;21441;52.190;20.910;2024-03-02T04:49:55;51.40;;;28.73;;
35330;SDS011;21441;52.190;20.910;2024-03-02T04:52:22;51.15;;;29.17;;
35330;SDS011;21441;52.190;20.910;2024-03-02T04:54:49;46.95;;;27.85;;
35330;SDS011;21441;52.190;20.910;2024-03-02T04:57:36;52.53;;;28.88;;
35330;SDS011;21441;52.190;20.910;2024-03-02T05:00:04;55.67;;;29.58;;
35330;SDS011;21441;52.190;20.910;2024-03-02T05:02:32;53.75;;;29.38;;
35330;SDS011;21441;52.190;20.910;2024-03-02T05:04:59;49.33;;;26.52;;
35330;SDS011;21441;52.190;20.910;2024-03-02T05:07:25;50.25;;;27.42;;
35330;SDS011;21441;52.190;20.910;2024-03-02T05:09:52;51.88;;;28.58;;
35330;SDS011;21441;52.190;20.910;2024-03-02T05:12:19;50.03;;;27.77;;
35330;SDS011;21441;52.190;20.910;2024-03-02T05:15:05;55.95;;;28.63;;
35330;SDS011;21441;52.190;20.910;2024-03-02T05:17:32;55.92;;;27.63;;
35330;SDS011;21441;52.190;20.910;2024-03-02T05:19:59;48.30;;;27.83;;
35330;SDS011;21441;52.190;20.910;2024-03-02T05:22:26;50.00;;;27.80;;
35330;SDS011;21441;52.190;20.910;2024-03-02T05:24:54;48.40;;;26.85;;
35330;SDS011;21441;52.190;20.910;2024-03-02T05:27:20;50.85;;;28.33;;
35330;SDS011;21441;52.190;20.910;2024-03-02T05:29:47;50.05;;;28.50;;
35330;SDS011;21441;52.190;20.910;2024-03-02T05:32:15;54.15;;;27.75;;
35330;SDS011;21441;52.190;20.910;2024-03-02T05:34:42;46.72;;;25.58;;
35330;SDS011;21441;52.190;20.910;2024-03-02T05:37:09;52.33;;;28.17;;
35330;SDS011;21441;52.190;20.910;2024-03-02T05:39:35;49.13;;;27.77;;
35330;SDS011;21441;52.190;20.910;2024-03-02T05:42:02;48.45;;;26.85;;
35330;SDS011;21441;52.190;20.910;2024-03-02T05:44:29;49.42;;;26.60;;
35330;SDS011;21441;52.190;20.910;2024-03-02T05:46:56;43.30;;;23.58;;
35330;SDS011;21441;52.190;20.910;2024-03-02T05:49:24;49.00;;;26.02;;
35330;SDS011;21441;52.190;20.910;2024-03-02T05:51:50;44.05;;;25.95;;
35330;SDS011;21441;52.190;20.910;2024-03-02T05:54:17;41.85;;;21.70;;
35330;SDS011;21441;52.190;20.910;2024-03-02T05:56:44;44.28;;;24.65;;
35330;SDS011;21441;52.190;20.910;2024-03-02T05:59:11;50.53;;;27.13;;
35330;SDS011;21441;52.190;20.910;2024-03-02T06:01:38;46.78;;;26.45;;
35330;SDS011;21441;52.190;20.910;2024-03-02T06:04:05;43.85;;;23.30;;
35330;SDS011;21441;52.190;20.910;2024-03-02T06:06:33;52.42;;;24.45;;
35330;SDS011;21441;52.190;20.910;2024-03-02T06:09:00;44.30;;;25.25;;
35330;SDS011;21441;52.190;20.910;2024-03-02T06:11:27;42.90;;;23.77;;
35330;SDS011;21441;52.190;20.910;2024-03-02T06:13:54;45.20;;;26.40;;
35330;SDS011;21441;52.190;20.910;2024-03-02T06:16:21;44.92;;;26.13;;
35330;SDS011;21441;52.190;20.910;2024-03-02T06:18:48;44.65;;;24.05;;
35330;SDS011;21441;52.190;20.910;2024-03-02T06:21:15;41.53;;;24.63;;
35330;SDS011;21441;52.190;20.910;2024-03-02T06:23:43;41.03;;;26.95;;
35330;SDS011;21441;52.190;20.910;2024-03-02T06:26:09;43.85;;;25.35;;
35330;SDS011;21441;52.190;20.910;2024-03-02T06:28:36;43.92;;;25.77;;
35330;SDS011;21441;52.190;20.910;2024-03-02T06:31:03;45.47;;;25.08;;
35330;SDS011;21441;52.190;20.910;2024-03-02T06:33:30;51.50;;;25.70;;
35330;SDS011;21441;52.190;20.910;2024-03-02T06:35:57;43.33;;;24.58;;
35330;SDS011;21441;52.190;20.910;2024-03-02T06:38:24;39.30;;;23.15;;
35330;SDS011;21441;52.190;20.910;2024-03-02T06:40:52;43.00;;;23.38;;
35330;SDS011;21441;52.190;20.910;2024-03-02T06:43:19;38.17;;;22.23;;
35330;SDS011;21441;52.190;20.910;2024-03-02T06:45:48;43.72;;;23.90;;
35330;SDS011;21441;52.190;20.910;2024-03-02T06:48:15;46.15;;;25.20;;
35330;SDS011;21441;52.190;20.910;2024-03-02T06:50:45;41.42;;;24.00;;
35330;SDS011;21441;52.190;20.910;2024-03-02T06:53:12;46.03;;;24.80;;
35330;SDS011;21441;52.190;20.910;2024-03-02T06:55:38;41.10;;;23.70;;
35330;SDS011;21441;52.190;20.910;2024-03-02T06:58:07;38.42;;;23.38;;
35330;SDS011;21441;52.190;20.910;2024-03-02T07:00:33;45.30;;;23.73;;
35330;SDS011;21441;52.190;20.910;2024-03-02T07:03:00;40.22;;;23.73;;
35330;SDS011;21441;52.190;20.910;2024-03-02T07:05:28;42.53;;;23.77;;
35330;SDS011;21441;52.190;20.910;2024-03-02T07:07:55;39.30;;;21.02;;
35330;SDS011;21441;52.190;20.910;2024-03-02T07:10:21;45.03;;;24.23;;
35330;SDS011;21441;52.190;20.910;2024-03-02T07:12:48;39.85;;;21.13;;
35330;SDS011;21441;52.190;20.910;2024-03-02T07:15:16;36.22;;;21.38;;
35330;SDS011;21441;52.190;20.910;2024-03-02T07:18:00;32.85;;;19.50;;
35330;SDS011;21441;52.190;20.910;2024-03-02T07:20:27;37.20;;;20.67;;
35330;SDS011;21441;52.190;20.910;2024-03-02T07:22:54;34.65;;;21.10;;
35330;SDS011;21441;52.190;20.910;2024-03-02T07:25:20;34.85;;;21.55;;
35330;SDS011;21441;52.190;20.910;2024-03-02T07:27:47;35.03;;;20.35;;
35330;SDS011;21441;52.190;20.910;2024-03-02T07:30:14;34.72;;;20.05;;
35330;SDS011;21441;52.190;20.910;2024-03-02T07:32:44;35.40;;;19.55;;
35330;SDS011;21441;52.190;20.910;2024-03-02T07:35:11;35.85;;;19.88;;
35330;SDS011;21441;52.190;20.910;2024-03-02T07:37:38;35.40;;;20.85;;
35330;SDS011;21441;52.190;20.910;2024-03-02T07:40:06;35.38;;;20.23;;
35330;SDS011;21441;52.190;20.910;2024-03-02T07:42:37;35.55;;;20.75;;
35330;SDS011;21441;52.190;20.910;2024-03-02T07:45:04;37.25;;;22.08;;
35330;SDS011;21441;52.190;20.910;2024-03-02T07:47:32;36.58;;;20.48;;
35330;SDS011;21441;52.190;20.910;2024-03-02T07:50:00;35.58;;;20.55;;
35330;SDS011;21441;52.190;20.910;2024-03-02T07:52:27;35.97;;;20.98;;
35330;SDS011;21441;52.190;20.910;2024-03-02T07:54:53;39.45;;;20.60;;
35330;SDS011;21441;52.190;20.910;2024-03-02T07:57:20;33.42;;;19.95;;
35330;SDS011;21441;52.190;20.910;2024-03-02T07:59:47;39.92;;;21.65;;
35330;SDS011;21441;52.190;20.910;2024-03-02T08:02:14;37.55;;;20.30;;
35330;SDS011;21441;52.190;20.910;2024-03-02T08:04:41;34.63;;;19.98;;
35330;SDS011;21441;52.190;20.910;2024-03-02T08:07:09;36.17;;;18.95;;
35330;SDS011;21441;52.190;20.910;2024-03-02T08:09:36;38.20;;;19.60;;
35330;SDS011;21441;52.190;20.910;2024-03-02T08:12:03;37.80;;;19.35;;
35330;SDS011;21441;52.190;20.910;2024-03-02T08:14:30;35.88;;;21.23;;
35330;SDS011;21441;52.190;20.910;2024-03-02T08:16:57;36.53;;;20.15;;
35330;SDS011;21441;52.190;20.910;2024-03-02T08:19:23;32.90;;;19.65;;
35330;SDS011;21441;52.190;20.910;2024-03-02T08:21:50;39.42;;;20.27;;
35330;SDS011;21441;52.190;20.910;2024-03-02T08:24:18;33.30;;;19.70;;
35330;SDS011;21441;52.190;20.910;2024-03-02T08:26:45;32.28;;;19.67;;
35330;SDS011;21441;52.190;20.910;2024-03-02T08:29:11;33.20;;;19.98;;
35330;SDS011;21441;52.190;20.910;2024-03-02T08:31:38;31.98;;;20.65;;
35330;SDS011;21441;52.190;20.910;2024-03-02T08:34:05;33.95;;;19.75;;
35330;SDS011;21441;52.190;20.910;2024-03-02T08:36:32;36.10;;;19.35;;
35330;SDS011;21441;52.190;20.910;2024-03-02T08:38:59;32.92;;;19.48;;
35330;SDS011;21441;52.190;20.910;2024-03-02T08:41:27;29.88;;;16.50;;
35330;SDS011;21441;52.190;20.910;2024-03-02T08:43:53;33.55;;;19.30;;
35330;SDS011;21441;52.190;20.910;2024-03-02T08:46:20;39.55;;;22.52;;
35330;SDS011;21441;52.190;20.910;2024-03-02T08:48:47;37.90;;;20.95;;
35330;SDS011;21441;52.190;20.910;2024-03-02T08:51:14;35.58;;;20.50;;
35330;SDS011;21441;52.190;20.910;2024-03-02T08:53:41;34.75;;;20.80;;
35330;SDS011;21441;52.190;20.910;2024-03-02T08:56:08;33.80;;;19.83;;
35330;SDS011;21441;52.190;20.910;2024-03-02T08:58:36;41.40;;;22.98;;
35330;SDS011;21441;52.190;20.910;2024-03-02T09:01:03;36.28;;;21.05;;
35330;SDS011;21441;52.190;20.910;2024-03-02T09:03:33;36.15;;;21.17;;
35330;SDS011;21441;52.190;20.910;2024-03-02T09:06:00;35.00;;;19.17;;
35330;SDS011;21441;52.190;20.910;2024-03-02T09:08:27;36.33;;;21.67;;
35330;SDS011;21441;52.190;20.910;2024-03-02T09:10:54;39.10;;;21.10;;
35330;SDS011;21441;52.190;20.910;2024-03-02T09:13:21;37.10;;;21.80;;
35330;SDS011;21441;52.190;20.910;2024-03-02T09:15:50;38.63;;;21.63;;
35330;SDS011;21441;52.190;20.910;2024-03-02T09:18:16;35.38;;;20.50;;
35330;SDS011;21441;52.190;20.910;2024-03-02T09:20:43;30.50;;;20.05;;
35330;SDS011;21441;52.190;20.910;2024-03-02T09:23:11;35.75;;;20.35;;
35330;SDS011;21441;52.190;20.910;2024-03-02T09:25:38;37.33;;;21.35;;
35330;SDS011;21441;52.190;20.910;2024-03-02T09:28:04;36.88;;;20.65;;
35330;SDS011;21441;52.190;20.910;2024-03-02T09:30:32;41.33;;;22.38;;
35330;SDS011;21441;52.190;20.910;2024-03-02T09:33:01;33.70;;;20.63;;
35330;SDS011;21441;52.190;20.910;2024-03-02T09:35:28;32.97;;;20.00;;
35330;SDS011;21441;52.190;20.910;2024-03-02T09:37:55;35.22;;;19.98;;
35330;SDS011;21441;52.190;20.910;2024-03-02T09:40:22;32.88;;;17.27;;
35330;SDS011;21441;52.190;20.910;2024-03-02T09:42:49;36.30;;;18.83;;
35330;SDS011;21441;52.190;20.910;2024-03-02T09:45:19;37.90;;;20.55;;
35330;SDS011;21441;52.190;20.910;2024-03-02T09:47:49;35.72;;;20.27;;
35330;SDS011;21441;52.190;20.910;2024-03-02T09:50:17;33.95;;;19.20;;
35330;SDS011;21441;52.190;20.910;2024-03-02T09:52:43;38.65;;;20.40;;
35330;SDS011;21441;52.190;20.910;2024-03-02T09:55:11;35.40;;;19.73;;
35330;SDS011;21441;52.190;20.910;2024-03-02T09:57:38;34.58;;;20.42;;
35330;SDS011;21441;52.190;20.910;2024-03-02T10:00:05;34.25;;;19.75;;
35330;SDS011;21441;52.190;20.910;2024-03-02T10:02:32;34.60;;;19.75;;
35330;SDS011;21441;52.190;20.910;2024-03-02T10:04:59;33.15;;;17.20;;
35330;SDS011;21441;52.190;20.910;2024-03-02T10:07:27;30.52;;;15.00;;
35330;SDS011;21441;52.190;20.910;2024-03-02T10:09:54;34.25;;;18.17;;
35330;SDS011;21441;52.190;20.910;2024-03-02T10:12:21;33.60;;;20.85;;
35330;SDS011;21441;52.190;20.910;2024-03-02T10:14:48;34.00;;;20.25;;
35330;SDS011;21441;52.190;20.910;2024-03-02T10:17:17;28.20;;;17.02;;
35330;SDS011;21441;52.190;20.910;2024-03-02T10:19:44;34.50;;;18.67;;
35330;SDS011;21441;52.190;20.910;2024-03-02T10:22:11;35.28;;;18.23;;
35330;SDS011;21441;52.190;20.910;2024-03-02T10:24:41;33.45;;;18.13;;
35330;SDS011;21441;52.190;20.910;2024-03-02T10:27:10;32.55;;;19.17;;
35330;SDS011;21441;52.190;20.910;2024-03-02T10:29:37;29.98;;;17.83;;
35330;SDS011;21441;52.190;20.910;2024-03-02T10:32:05;31.33;;;19.83;;
35330;SDS011;21441;52.190;20.910;2024-03-02T10:34:32;27.92;;;17.38;;
35330;SDS011;21441;52.190;20.910;2024-03-02T10:36:59;32.45;;;17.27;;
35330;SDS011;21441;52.190;20.910;2024-03-02T10:39:26;33.25;;;19.77;;
35330;SDS011;21441;52.190;20.910;2024-03-02T10:41:54;32.47;;;18.48;;
35330;SDS011;21441;52.190;20.910;2024-03-02T10:44:22;28.85;;;16.90;;
35330;SDS011;21441;52.190;20.910;2024-03-02T10:46:49;31.67;;;18.10;;
35330;SDS011;21441;52.190;20.910;2024-03-02T10:49:16;37.22;;;19.25;;
35330;SDS011;21441;52.190;20.910;2024-03-02T10:51:43;30.15;;;17.90;;
35330;SDS011;21441;52.190;20.910;2024-03-02T10:54:10;27.17;;;17.88;;
35330;SDS011;21441;52.190;20.910;2024-03-02T10:56:38;31.38;;;18.27;;
35330;SDS011;21441;52.190;20.910;2024-03-02T10:59:11;29.70;;;16.52;;
35330;SDS011;21441;52.190;20.910;2024-03-02T11:01:38;31.50;;;18.15;;
35330;SDS011;21441;52.190;20.910;2024-03-02T11:04:06;36.35;;;19.45;;
35330;SDS011;21441;52.190;20.910;2024-03-02T11:06:34;27.45;;;17.25;;
35330;SDS011;21441;52.190;20.910;2024-03-02T11:09:06;34.50;;;19.83;;
35330;SDS011;21441;52.190;20.910;2024-03-02T11:11:36;34.58;;;20.42;;
35330;SDS011;21441;52.190;20.910;2024-03-02T11:14:04;28.88;;;18.48;;
35330;SDS011;21441;52.190;20.910;2024-03-02T11:16:36;34.97;;;18.55;;
35330;SDS011;21441;52.190;20.910;2024-03-02T11:19:04;35.25;;;19.63;;
35330;SDS011;21441;52.190;20.910;2024-03-02T11:21:31;31.58;;;18.52;;
35330;SDS011;21441;52.190;20.910;2024-03-02T11:23:58;30.80;;;19.30;;
35330;SDS011;21441;52.190;20.910;2024-03-02T11:26:27;28.70;;;17.92;;
35330;SDS011;21441;52.190;20.910;2024-03-02T11:28:54;29.50;;;18.33;;
35330;SDS011;21441;52.190;20.910;2024-03-02T11:31:22;29.70;;;17.95;;
35330;SDS011;21441;52.190;20.910;2024-03-02T11:33:50;35.53;;;19.90;;
35330;SDS011;21441;52.190;20.910;2024-03-02T11:36:17;34.40;;;20.23;;
35330;SDS011;21441;52.190;20.910;2024-03-02T11:38:44;32.22;;;19.77;;
35330;SDS011;21441;52.190;20.910;2024-03-02T11:41:12;28.20;;;19.05;;
35330;SDS011;21441;52.190;20.910;2024-03-02T11:43:40;28.58;;;17.75;;
35330;SDS011;21441;52.190;20.910;2024-03-02T11:46:09;34.03;;;19.90;;
35330;SDS011;21441;52.190;20.910;2024-03-02T11:48:37;35.20;;;19.95;;
35330;SDS011;21441;52.190;20.910;2024-03-02T11:51:06;35.95;;;20.23;;
35330;SDS011;21441;52.190;20.910;2024-03-02T11:53:34;39.58;;;21.60;;
35330;SDS011;21441;52.190;20.910;2024-03-02T11:56:01;31.27;;;21.10;;
35330;SDS011;21441;52.190;20.910;2024-03-02T11:58:28;35.42;;;19.50;;
35330;SDS011;21441;52.190;20.910;2024-03-02T12:00:55;34.08;;;19.58;;
35330;SDS011;21441;52.190;20.910;2024-03-02T12:03:23;37.13;;;21.08;;
35330;SDS011;21441;52.190;20.910;2024-03-02T12:05:51;36.53;;;22.38;;
35330;SDS011;21441;52.190;20.910;2024-03-02T12:08:20;39.65;;;21.63;;
35330;SDS011;21441;52.190;20.910;2024-03-02T12:10:55;36.63;;;22.03;;
35330;SDS011;21441;52.190;20.910;2024-03-02T12:13:22;41.17;;;23.33;;
35330;SDS011;21441;52.190;20.910;2024-03-02T12:15:52;39.97;;;25.80;;
35330;SDS011;21441;52.190;20.910;2024-03-02T12:18:19;36.05;;;23.10;;
35330;SDS011;21441;52.190;20.910;2024-03-02T12:20:46;37.83;;;24.33;;
35330;SDS011;21441;52.190;20.910;2024-03-02T12:23:15;38.35;;;24.42;;
35330;SDS011;21441;52.190;20.910;2024-03-02T12:25:43;35.22;;;24.73;;
35330;SDS011;21441;52.190;20.910;2024-03-02T12:28:11;39.47;;;25.00;;
35330;SDS011;21441;52.190;20.910;2024-03-02T12:30:38;36.20;;;24.58;;
35330;SDS011;21441;52.190;20.910;2024-03-02T12:33:05;36.95;;;25.42;;
35330;SDS011;21441;52.190;20.910;2024-03-02T12:35:32;39.50;;;26.10;;
35330;SDS011;21441;52.190;20.910;2024-03-02T12:37:59;39.65;;;25.02;;
35330;SDS011;21441;52.190;20.910;2024-03-02T12:40:25;44.45;;;26.95;;
35330;SDS011;21441;52.190;20.910;2024-03-02T12:42:54;39.13;;;23.92;;
35330;SDS011;21441;52.190;20.910;2024-03-02T12:45:21;37.70;;;26.40;;
35330;SDS011;21441;52.190;20.910;2024-03-02T12:47:51;44.03;;;27.75;;
35330;SDS011;21441;52.190;20.910;2024-03-02T12:50:18;41.30;;;27.27;;
35330;SDS011;21441;52.190;20.910;2024-03-02T12:52:50;40.10;;;26.73;;
35330;SDS011;21441;52.190;20.910;2024-03-02T12:55:17;48.17;;;29.67;;
35330;SDS011;21441;52.190;20.910;2024-03-02T12:57:44;41.63;;;27.05;;
35330;SDS011;21441;52.190;20.910;2024-03-02T13:00:12;44.78;;;27.80;;
35330;SDS011;21441;52.190;20.910;2024-03-02T13:02:39;41.67;;;26.42;;
35330;SDS011;21441;52.190;20.910;2024-03-02T13:05:06;43.70;;;27.77;;
35330;SDS011;21441;52.190;20.910;2024-03-02T13:07:36;39.22;;;27.05;;
35330;SDS011;21441;52.190;20.910;2024-03-02T13:10:03;41.15;;;27.70;;
35330;SDS011;21441;52.190;20.910;2024-03-02T13:12:30;37.35;;;26.80;;
35330;SDS011;21441;52.190;20.910;2024-03-02T13:14:58;44.25;;;27.25;;
35330;SDS011;21441;52.190;20.910;2024-03-02T13:17:26;40.58;;;25.77;;
35330;SDS011;21441;52.190;20.910;2024-03-02T13:19:53;42.40;;;27.63;;
35330;SDS011;21441;52.190;20.910;2024-03-02T13:22:21;39.47;;;25.13;;
35330;SDS011;21441;52.190;20.910;2024-03-02T13:24:50;42.83;;;27.42;;
35330;SDS011;21441;52.190;20.910;2024-03-02T13:27:17;44.60;;;26.98;;
35330;SDS011;21441;52.190;20.910;2024-03-02T13:29:45;42.55;;;27.08;;
35330;SDS011;21441;52.190;20.910;2024-03-02T13:32:11;37.28;;;24.92;;
35330;SDS011;21441;52.190;20.910;2024-03-02T13:34:39;37.22;;;25.52;;
35330;SDS011;21441;52.190;20.910;2024-03-02T13:37:06;36.85;;;24.95;;
35330;SDS011;21441;52.190;20.910;2024-03-02T13:39:33;42.28;;;26.35;;
35330;SDS011;21441;52.190;20.910;2024-03-02T13:42:06;36.75;;;25.05;;
35330;SDS011;21441;52.190;20.910;2024-03-02T13:44:33;42.35;;;26.02;;
35330;SDS011;21441;52.190;20.910;2024-03-02T13:47:00;38.03;;;25.23;;
35330;SDS011;21441;52.190;20.910;2024-03-02T13:49:27;41.28;;;26.08;;
35330;SDS011;21441;52.190;20.910;2024-03-02T13:52:00;41.38;;;25.83;;
35330;SDS011;21441;52.190;20.910;2024-03-02T13:54:28;43.42;;;26.13;;
35330;SDS011;21441;52.190;20.910;2024-03-02T13:56:55;40.97;;;27.85;;
35330;SDS011;21441;52.190;20.910;2024-03-02T13:59:23;40.67;;;28.00;;
35330;SDS011;21441;52.190;20.910;2024-03-02T14:01:51;43.63;;;25.27;;
35330;SDS011;21441;52.190;20.910;2024-03-02T14:04:17;44.50;;;24.75;;
35330;SDS011;21441;52.190;20.910;2024-03-02T14:06:44;46.28;;;27.80;;
35330;SDS011;21441;52.190;20.910;2024-03-02T14:09:12;41.65;;;28.33;;
35330;SDS011;21441;52.190;20.910;2024-03-02T14:11:39;42.10;;;27.65;;